Terminal Aerodrome Forecast
Issued by NWS

Current Version | Previous Version | Graphics & Text | Print | Product List | Glossary On
Versions: 1 2 3 4 5 6 7 8 9 10 11 12 13 14 15 16 17 18 19 20 21 22 23 24 25 26 27 28 29
000
FTUS41 KRNK 220113 AAA
TAFLWB
TAF AMD
KLWB 220113Z 2201/2224 34010KT 5SM -TSRA OVC028CB
     FM220300 VRB03KT P6SM OVC025
     FM220600 00000KT 4SM BR OVC008
     FM220700 00000KT 1/4SM FG OVC001
     FM221400 00000KT P6SM BKN025
     FM221700 26005KT P6SM BKN035=

USA.gov is the U.S. government's official web portal to all federal, state and local government web resources and services.